createdAt,value
2022-09-06T00:02:15.920Z,10.30
2022-09-06T00:05:19.225Z,10.88
2022-09-06T00:08:22.124Z,11.00
2022-09-06T00:11:25.147Z,13.30
2022-09-06T00:14:27.833Z,10.90
2022-09-06T00:17:32.604Z,9.68
2022-09-06T00:20:38.492Z,12.07
2022-09-06T00:23:42.464Z,12.18
2022-09-06T00:26:45.088Z,11.50
2022-09-06T00:29:48.217Z,12.67
2022-09-06T00:32:50.943Z,11.15
2022-09-06T00:35:59.765Z,10.70
2022-09-06T00:39:03.012Z,9.77
2022-09-06T00:42:13.987Z,12.60
2022-09-06T00:45:16.757Z,10.80
2022-09-06T00:48:20.536Z,10.13
2022-09-06T00:51:26.543Z,10.40
2022-09-06T00:54:31.356Z,9.73
2022-09-06T00:57:35.190Z,9.83
2022-09-06T01:00:38.336Z,10.53
2022-09-06T01:03:41.500Z,11.38
2022-09-06T01:06:53.133Z,10.02
2022-09-06T01:10:50.364Z,9.70
2022-09-06T01:14:15.419Z,10.53
2022-09-06T01:17:27.059Z,10.67
2022-09-06T01:20:33.069Z,9.88
2022-09-06T01:24:21.779Z,10.05
2022-09-06T01:27:58.946Z,8.60
2022-09-06T01:31:25.230Z,9.53
2022-09-06T01:34:35.502Z,9.77
2022-09-06T01:37:39.435Z,11.23
2022-09-06T01:40:42.464Z,9.02
2022-09-06T01:43:49.607Z,9.00
2022-09-06T01:47:05.668Z,10.30
2022-09-06T01:50:43.691Z,9.50
2022-09-06T01:54:12.476Z,9.05
2022-09-06T01:57:33.834Z,9.32
2022-09-06T02:01:03.909Z,9.50
2022-09-06T02:04:23.854Z,9.50
2022-09-06T02:07:32.332Z,8.27
2022-09-06T02:10:47.438Z,9.38
2022-09-06T02:13:59.968Z,10.52
2022-09-06T02:17:05.441Z,8.82
2022-09-06T02:20:20.823Z,16.17
2022-09-06T02:23:29.270Z,10.20
2022-09-06T02:26:36.206Z,14.15
2022-09-06T02:29:39.357Z,7.90
2022-09-06T02:32:56.587Z,8.18
2022-09-06T02:36:06.382Z,10.50
2022-09-06T02:39:09.643Z,8.40
2022-09-06T02:42:15.729Z,10.88
2022-09-06T02:45:18.359Z,12.05
2022-09-06T02:48:22.759Z,11.00
2022-09-06T02:51:27.880Z,12.07
2022-09-06T02:54:31.405Z,7.53
2022-09-06T02:57:35.801Z,10.45
2022-09-06T03:00:39.108Z,9.18
2022-09-06T03:03:42.580Z,10.03
2022-09-06T03:06:45.538Z,11.70
2022-09-06T03:09:48.223Z,8.00
2022-09-06T03:12:51.406Z,13.48
2022-09-06T03:15:57.717Z,9.07
2022-09-06T03:19:00.679Z,10.97
2022-09-06T03:22:03.391Z,10.10
2022-09-06T03:25:08.154Z,11.73
2022-09-06T03:28:11.258Z,9.20
2022-09-06T03:31:14.269Z,10.40
2022-09-06T03:34:16.977Z,12.90
2022-09-06T03:37:20.016Z,12.43
2022-09-06T03:40:22.917Z,13.37
2022-09-06T03:43:27.400Z,11.12
2022-09-06T03:46:31.044Z,11.60
2022-09-06T03:49:34.060Z,17.37
2022-09-06T03:52:36.735Z,11.47
2022-09-06T03:55:40.240Z,10.15
2022-09-06T03:58:42.828Z,12.43
2022-09-06T04:01:46.831Z,9.88
2022-09-06T04:04:49.888Z,12.50
2022-09-06T04:07:52.562Z,13.70
2022-09-06T04:10:57.096Z,12.73
2022-09-06T04:13:59.746Z,13.55
2022-09-06T04:17:03.030Z,13.55
2022-09-06T04:20:06.474Z,14.63
2022-09-06T04:23:09.801Z,15.43
2022-09-06T04:26:12.484Z,17.60
2022-09-06T04:29:15.471Z,14.25
2022-09-06T04:32:18.542Z,14.35
2022-09-06T04:35:21.500Z,14.97
2022-09-06T04:38:26.941Z,16.67
2022-09-06T04:41:29.980Z,16.12
2022-09-06T04:44:32.732Z,19.08
2022-09-06T04:47:36.102Z,16.75
2022-09-06T04:50:39.127Z,13.93
2022-09-06T04:53:42.195Z,14.87
2022-09-06T04:56:44.832Z,17.15
2022-09-06T04:59:47.902Z,17.67
2022-09-06T05:02:50.550Z,11.93
2022-09-06T05:05:53.533Z,13.90
2022-09-06T05:08:56.314Z,14.37
2022-09-06T05:12:00.051Z,15.50
2022-09-06T05:15:02.843Z,15.25
2022-09-06T05:18:06.839Z,14.48
2022-09-06T05:21:09.665Z,13.07
2022-09-06T05:24:13.008Z,12.43
2022-09-06T05:27:15.885Z,12.73
2022-09-06T05:30:19.892Z,12.15
2022-09-06T05:33:23.346Z,13.45
2022-09-06T05:36:27.765Z,11.07
2022-09-06T05:39:30.549Z,12.97
2022-09-06T05:42:36.137Z,13.88
2022-09-06T05:45:38.937Z,12.95
2022-09-06T05:48:41.908Z,12.07
2022-09-06T05:51:44.551Z,11.87
2022-09-06T05:54:47.547Z,15.70
2022-09-06T05:57:50.602Z,15.85
2022-09-06T06:00:54.142Z,15.95
2022-09-06T06:04:08.179Z,17.00
2022-09-06T06:07:10.882Z,15.67
2022-09-06T06:10:13.992Z,13.50
2022-09-06T06:13:16.681Z,15.30
2022-09-06T06:16:22.304Z,13.05
2022-09-06T06:19:26.806Z,16.10
2022-09-06T06:22:29.866Z,13.37
2022-09-06T06:25:32.507Z,12.87
2022-09-06T06:28:36.895Z,14.77
2022-09-06T06:31:40.954Z,13.32
2022-09-06T06:34:44.007Z,9.95
2022-09-06T06:37:46.694Z,10.67
2022-09-06T06:40:49.622Z,10.67
2022-09-06T06:43:57.667Z,9.03
2022-09-06T06:47:02.769Z,10.40
2022-09-06T06:50:05.969Z,7.32
2022-09-06T06:53:08.970Z,8.27
2022-09-06T06:56:20.257Z,11.35
2022-09-06T06:59:23.288Z,5.80
2022-09-06T07:02:26.067Z,8.23
2022-09-06T07:08:52.761Z,6.78
2022-09-06T07:11:55.812Z,9.57
2022-09-06T07:14:59.817Z,7.27
2022-09-06T07:18:02.856Z,6.28
2022-09-06T07:24:28.779Z,5.32
2022-09-06T07:27:47.297Z,5.70
2022-09-06T07:30:54.446Z,5.87
2022-09-06T07:33:57.065Z,7.30
2022-09-06T07:37:00.125Z,10.43
2022-09-06T07:40:04.486Z,5.53
2022-09-06T07:43:07.591Z,6.40
2022-09-06T07:46:13.516Z,6.00
2022-09-06T07:49:16.482Z,6.07
2022-09-06T07:55:42.129Z,6.68
2022-09-06T07:58:44.966Z,6.10
2022-09-06T08:01:48.543Z,8.10
2022-09-06T08:04:55.839Z,9.65
2022-09-06T08:11:24.158Z,5.87
2022-09-06T08:14:26.819Z,5.97
2022-09-06T08:17:35.351Z,10.70
2022-09-06T08:20:38.120Z,6.20
2022-09-06T08:23:45.417Z,8.43
2022-09-06T08:26:48.132Z,6.15
2022-09-06T08:29:51.217Z,8.15
2022-09-06T08:32:57.068Z,6.70
2022-09-06T08:36:00.708Z,10.80
2022-09-06T08:39:06.322Z,6.20
2022-09-06T08:42:11.576Z,5.82
2022-09-06T08:45:19.616Z,6.47
2022-09-06T08:48:26.824Z,7.17
2022-09-06T08:51:49.500Z,8.25
2022-09-06T08:55:12.674Z,9.77
2022-09-06T08:58:30.281Z,9.05
2022-09-06T09:01:44.189Z,9.55
2022-09-06T09:05:00.730Z,7.50
2022-09-06T09:08:16.397Z,7.55
2022-09-06T09:11:21.601Z,10.80
2022-09-06T09:14:36.313Z,6.35
2022-09-06T09:17:39.260Z,7.75
2022-09-06T09:20:42.180Z,8.00
2022-09-06T09:23:49.098Z,7.90
2022-09-06T09:27:02.785Z,6.80
2022-09-06T09:33:38.908Z,5.60
2022-09-06T09:40:05.074Z,6.35
2022-09-06T09:43:13.738Z,9.60
2022-09-06T09:46:23.538Z,8.23
2022-09-06T09:49:29.978Z,7.20
2022-09-06T09:52:32.972Z,5.70
2022-09-06T09:55:35.926Z,6.18
2022-09-06T09:58:40.045Z,5.87
2022-09-06T10:01:42.741Z,6.25
2022-09-06T10:04:50.004Z,5.97
2022-09-06T10:07:57.771Z,8.37
2022-09-06T10:11:01.172Z,7.68
2022-09-06T10:14:23.351Z,7.87
2022-09-06T10:17:34.353Z,5.50
2022-09-06T10:20:50.615Z,8.85
2022-09-06T10:27:26.542Z,5.93
2022-09-06T10:30:32.384Z,6.60
2022-09-06T10:34:05.009Z,6.70
2022-09-06T10:37:24.129Z,7.10
2022-09-06T10:40:32.764Z,10.70
2022-09-06T10:43:48.907Z,7.35
2022-09-06T10:47:04.923Z,6.43
2022-09-06T10:50:08.415Z,7.93
2022-09-06T10:53:32.900Z,6.20
2022-09-06T10:56:56.903Z,8.03
2022-09-06T11:00:14.999Z,10.27
2022-09-06T11:07:01.174Z,9.93
2022-09-06T11:10:24.714Z,6.75
2022-09-06T11:13:28.716Z,7.57
2022-09-06T11:16:39.780Z,5.15
2022-09-06T11:20:19.448Z,6.57
2022-09-06T11:23:48.488Z,6.33
2022-09-06T11:27:01.018Z,6.68
2022-09-06T11:30:06.984Z,7.80
2022-09-06T11:33:35.698Z,5.50
2022-09-06T11:37:00.453Z,4.80
2022-09-06T11:40:28.243Z,6.33
2022-09-06T11:43:49.518Z,7.25
2022-09-06T11:46:55.097Z,7.87
2022-09-06T11:49:58.175Z,6.75
2022-09-06T11:53:17.723Z,5.57
2022-09-06T11:56:31.868Z,6.00
2022-09-06T11:59:44.276Z,6.70
2022-09-06T12:02:47.421Z,6.37
2022-09-06T12:06:20.489Z,5.47
2022-09-06T12:09:48.131Z,7.80
2022-09-06T12:12:52.763Z,6.12
2022-09-06T12:15:56.699Z,8.93
2022-09-06T12:19:02.215Z,5.67
2022-09-06T12:22:27.851Z,10.23
2022-09-06T12:25:34.321Z,10.15
2022-09-06T12:28:42.901Z,6.45
2022-09-06T12:31:55.252Z,8.50
2022-09-06T12:38:31.105Z,6.13
2022-09-06T12:41:43.281Z,6.65
2022-09-06T12:44:52.677Z,10.10
2022-09-06T12:48:11.964Z,9.05
2022-09-06T12:51:25.937Z,10.63
2022-09-06T12:54:29.291Z,7.80
2022-09-06T12:57:32.238Z,14.15
2022-09-06T13:00:40.987Z,14.18
2022-09-06T13:03:57.582Z,11.32
2022-09-06T13:07:03.281Z,10.77
2022-09-06T13:10:07.058Z,14.30
2022-09-06T13:13:09.834Z,10.27
2022-09-06T13:16:24.215Z,12.77
2022-09-06T13:19:39.391Z,10.13
2022-09-06T13:22:47.396Z,9.03
2022-09-06T13:25:53.207Z,7.67
2022-09-06T13:28:56.162Z,8.23
2022-09-06T13:32:02.464Z,6.55
2022-09-06T13:35:05.692Z,7.22
2022-09-06T13:38:35.035Z,6.27
2022-09-06T13:41:41.922Z,6.80
2022-09-06T13:44:45.830Z,9.60
2022-09-06T13:47:49.134Z,8.30
2022-09-06T13:50:53.946Z,7.50
2022-09-06T13:54:13.560Z,15.10
2022-09-06T13:57:19.988Z,6.43
2022-09-06T14:00:26.636Z,5.80
2022-09-06T14:03:31.994Z,7.53
2022-09-06T14:06:37.113Z,6.07
2022-09-06T14:09:40.388Z,7.23
2022-09-06T14:12:45.590Z,6.40
2022-09-06T14:15:50.655Z,7.57
2022-09-06T14:18:53.433Z,8.40
2022-09-06T14:21:56.394Z,7.30
2022-09-06T14:24:59.907Z,8.57
2022-09-06T14:28:04.638Z,7.30
2022-09-06T14:31:13.050Z,6.80
2022-09-06T14:34:16.435Z,10.50
2022-09-06T14:37:19.202Z,7.78
2022-09-06T14:40:22.218Z,9.13
2022-09-06T14:43:24.992Z,5.60
2022-09-06T14:46:30.064Z,7.30
2022-09-06T14:49:32.932Z,16.57
2022-09-06T14:52:38.809Z,9.27
2022-09-06T14:55:42.944Z,7.50
2022-09-06T14:58:46.866Z,10.95
2022-09-06T15:01:49.515Z,9.87
2022-09-06T15:04:52.606Z,9.93
2022-09-06T15:07:59.354Z,12.32
2022-09-06T15:11:02.739Z,9.43
2022-09-06T15:14:17.929Z,9.38
2022-09-06T15:17:20.933Z,8.53
2022-09-06T15:20:23.534Z,9.27
2022-09-06T15:23:27.642Z,9.32
2022-09-06T15:26:30.981Z,9.25
2022-09-06T15:29:34.003Z,9.85
2022-09-06T15:32:36.711Z,10.97
2022-09-06T15:35:43.232Z,9.17
2022-09-06T15:38:48.294Z,8.70
2022-09-06T15:41:52.006Z,10.73
2022-09-06T15:44:55.527Z,9.20
2022-09-06T15:48:01.333Z,7.73
2022-09-06T15:51:05.765Z,5.80
2022-09-06T15:54:09.324Z,6.97
2022-09-06T15:57:13.695Z,6.03
2022-09-06T16:00:18.307Z,6.80
2022-09-06T16:03:21.310Z,6.17
2022-09-06T16:06:27.946Z,6.83
2022-09-06T16:09:33.007Z,6.85
2022-09-06T16:12:35.606Z,6.15
2022-09-06T16:15:38.582Z,5.62
2022-09-06T16:18:43.989Z,8.40
2022-09-06T16:21:46.938Z,7.80
2022-09-06T16:24:49.705Z,7.05
2022-09-06T16:27:54.183Z,6.57
2022-09-06T16:31:01.090Z,7.25
2022-09-06T16:34:06.069Z,8.03
2022-09-06T16:37:08.864Z,8.37
2022-09-06T16:40:12.227Z,9.77
2022-09-06T16:43:16.788Z,6.75
2022-09-06T16:46:24.437Z,14.18
2022-09-06T16:49:28.538Z,7.80
2022-09-06T16:52:31.582Z,8.17
2022-09-06T16:55:39.278Z,7.85
2022-09-06T16:58:44.035Z,9.70
2022-09-06T17:01:50.529Z,9.30
2022-09-06T17:04:54.438Z,9.33
2022-09-06T17:07:58.647Z,10.40
2022-09-06T17:11:09.623Z,9.45
2022-09-06T17:14:12.490Z,11.57
2022-09-06T17:17:18.068Z,10.70
2022-09-06T17:20:21.152Z,8.47
2022-09-06T17:23:25.468Z,10.23
2022-09-06T17:26:28.191Z,8.35
2022-09-06T17:29:34.020Z,7.03
2022-09-06T17:32:37.318Z,8.43
2022-09-06T17:35:40.707Z,7.73
2022-09-06T17:38:47.921Z,14.83
2022-09-06T17:41:58.439Z,7.43
2022-09-06T17:45:02.926Z,9.20
2022-09-06T17:48:06.205Z,11.45
2022-09-06T17:51:08.960Z,13.60
2022-09-06T17:54:14.173Z,11.77
2022-09-06T17:57:17.083Z,9.70
2022-09-06T18:00:20.693Z,10.85
2022-09-06T18:03:24.926Z,11.50
2022-09-06T18:06:30.856Z,9.07
2022-09-06T18:09:37.320Z,9.10
2022-09-06T18:12:40.393Z,12.23
2022-09-06T18:15:45.107Z,11.63
2022-09-06T18:18:53.273Z,12.73
2022-09-06T18:21:57.766Z,10.17
2022-09-06T18:25:00.409Z,16.37
2022-09-06T18:28:05.276Z,10.50
2022-09-06T18:31:15.688Z,11.45
2022-09-06T18:34:20.212Z,11.30
2022-09-06T18:37:23.333Z,10.90
2022-09-06T18:40:27.285Z,12.33
2022-09-06T18:43:42.972Z,12.23
2022-09-06T18:46:47.460Z,10.65
2022-09-06T18:49:50.429Z,10.15
2022-09-06T18:52:54.414Z,11.77
2022-09-06T18:55:57.336Z,13.03
2022-09-06T18:59:01.938Z,12.57
2022-09-06T19:02:05.071Z,15.68
2022-09-06T19:05:08.933Z,12.82
2022-09-06T19:08:12.048Z,13.40
2022-09-06T19:11:18.264Z,12.20
2022-09-06T19:14:21.191Z,13.88
2022-09-06T19:17:24.753Z,13.82
2022-09-06T19:20:27.900Z,12.52
2022-09-06T19:23:34.354Z,11.63
2022-09-06T19:26:40.289Z,11.93
2022-09-06T19:29:43.778Z,12.13
2022-09-06T19:32:47.581Z,12.75
2022-09-06T19:36:10.431Z,14.85
2022-09-06T19:39:16.797Z,14.30
2022-09-06T19:42:20.260Z,13.30
2022-09-06T19:45:23.530Z,12.85
2022-09-06T19:48:29.000Z,12.37
2022-09-06T19:51:33.566Z,13.27
2022-09-06T19:54:40.036Z,10.53
2022-09-06T19:57:43.250Z,13.03
2022-09-06T20:00:46.835Z,13.85
2022-09-06T20:03:53.371Z,14.18
2022-09-06T20:06:56.465Z,13.55
2022-09-06T20:10:01.859Z,12.10
2022-09-06T20:13:06.017Z,12.33
2022-09-06T20:16:10.634Z,13.38
2022-09-06T20:19:15.488Z,11.43
2022-09-06T20:22:19.220Z,12.57
2022-09-06T20:25:22.136Z,14.97
2022-09-06T20:28:25.392Z,12.83
2022-09-06T20:31:30.253Z,14.60
2022-09-06T20:34:34.813Z,9.70
2022-09-06T20:37:39.346Z,9.82
2022-09-06T20:40:42.894Z,11.43
2022-09-06T20:43:52.864Z,13.87
2022-09-06T20:46:56.286Z,12.82
2022-09-06T20:50:00.189Z,13.40
2022-09-06T20:53:03.156Z,12.10
2022-09-06T20:56:08.135Z,11.00
2022-09-06T20:59:14.401Z,13.60
2022-09-06T21:02:17.426Z,14.25
2022-09-06T21:05:21.798Z,14.73
2022-09-06T21:08:24.468Z,12.23
2022-09-06T21:11:27.688Z,12.13
2022-09-06T21:14:30.809Z,11.47
2022-09-06T21:17:33.863Z,14.25
2022-09-06T21:20:36.944Z,18.67
2022-09-06T21:23:40.008Z,11.70
2022-09-06T21:26:43.512Z,14.07
2022-09-06T21:29:46.405Z,12.77
2022-09-06T21:32:49.282Z,13.02
2022-09-06T21:35:53.414Z,12.52
2022-09-06T21:38:59.227Z,16.10
2022-09-06T21:42:02.222Z,12.93
2022-09-06T21:45:05.194Z,15.77
2022-09-06T21:48:08.177Z,13.50
2022-09-06T21:51:14.464Z,14.32
2022-09-06T21:54:18.522Z,13.95
2022-09-06T21:57:21.151Z,13.37
2022-09-06T22:00:25.497Z,13.90
2022-09-06T22:03:30.720Z,14.15
2022-09-06T22:06:34.943Z,13.50
2022-09-06T22:09:37.875Z,16.23
2022-09-06T22:12:42.695Z,12.37
2022-09-06T22:15:46.069Z,12.23
2022-09-06T22:18:49.634Z,14.50
2022-09-06T22:21:54.543Z,14.45
2022-09-06T22:24:57.515Z,14.38
2022-09-06T22:28:00.784Z,15.47
2022-09-06T22:31:04.219Z,15.00
2022-09-06T22:34:07.717Z,12.13
2022-09-06T22:37:10.384Z,12.25
2022-09-06T22:40:15.585Z,13.20
2022-09-06T22:43:18.299Z,13.83
2022-09-06T22:46:25.363Z,16.10
2022-09-06T22:49:28.081Z,14.25
2022-09-06T22:52:31.068Z,15.43
2022-09-06T22:55:33.992Z,13.45
2022-09-06T22:58:36.897Z,14.10
2022-09-06T23:01:39.522Z,14.47
2022-09-06T23:04:42.621Z,15.05
2022-09-06T23:07:45.343Z,11.10
2022-09-06T23:10:48.538Z,15.07
2022-09-06T23:13:55.882Z,12.50
2022-09-06T23:16:58.881Z,11.70
2022-09-06T23:20:01.704Z,15.98
2022-09-06T23:23:05.408Z,15.13
2022-09-06T23:26:10.345Z,13.30
2022-09-06T23:29:13.558Z,13.70
2022-09-06T23:32:16.194Z,10.43
2022-09-06T23:35:19.174Z,11.20
2022-09-06T23:38:22.966Z,12.23
2022-09-06T23:41:26.774Z,12.93
2022-09-06T23:44:29.570Z,11.73
2022-09-06T23:47:32.608Z,13.47
2022-09-06T23:50:35.336Z,12.03
2022-09-06T23:53:39.977Z,11.68
2022-09-06T23:56:43.739Z,11.98
2022-09-06T23:59:46.960Z,13.32
